sensor_id;sensor_type;location;lat;lon;timestamp;P1;durP1;ratioP1;P2;durP2;ratioP2
7525;SDS011;3804;50.860;6.208;2023-02-24T00:01:28;24.07;;;13.20;;
7525;SDS011;3804;50.860;6.208;2023-02-24T00:03:55;19.53;;;11.63;;
7525;SDS011;3804;50.860;6.208;2023-02-24T00:06:23;22.67;;;12.63;;
7525;SDS011;3804;50.860;6.208;2023-02-24T00:08:49;24.67;;;12.40;;
7525;SDS011;3804;50.860;6.208;2023-02-24T00:11:16;18.93;;;11.20;;
7525;SDS011;3804;50.860;6.208;2023-02-24T00:13:44;18.03;;;11.47;;
7525;SDS011;3804;50.860;6.208;2023-02-24T00:16:14;22.57;;;9.50;;
7525;SDS011;3804;50.860;6.208;2023-02-24T00:18:45;38.20;;;13.30;;
7525;SDS011;3804;50.860;6.208;2023-02-24T00:21:13;25.93;;;13.47;;
7525;SDS011;3804;50.860;6.208;2023-02-24T00:23:41;28.03;;;12.57;;
7525;SDS011;3804;50.860;6.208;2023-02-24T00:26:08;26.67;;;13.63;;
7525;SDS011;3804;50.860;6.208;2023-02-24T00:28:36;33.53;;;15.80;;
7525;SDS011;3804;50.860;6.208;2023-02-24T00:31:08;28.00;;;15.83;;
7525;SDS011;3804;50.860;6.208;2023-02-24T00:33:40;29.17;;;15.03;;
7525;SDS011;3804;50.860;6.208;2023-02-24T00:36:11;36.03;;;19.13;;
7525;SDS011;3804;50.860;6.208;2023-02-24T00:38:39;40.63;;;16.40;;
7525;SDS011;3804;50.860;6.208;2023-02-24T00:41:13;40.43;;;16.27;;
7525;SDS011;3804;50.860;6.208;2023-02-24T00:43:41;34.00;;;14.27;;
7525;SDS011;3804;50.860;6.208;2023-02-24T00:46:16;29.37;;;13.30;;
7525;SDS011;3804;50.860;6.208;2023-02-24T00:48:44;34.40;;;11.80;;
7525;SDS011;3804;50.860;6.208;2023-02-24T00:51:14;23.50;;;9.67;;
7525;SDS011;3804;50.860;6.208;2023-02-24T00:53:42;38.60;;;14.73;;
7525;SDS011;3804;50.860;6.208;2023-02-24T00:56:10;43.10;;;13.47;;
7525;SDS011;3804;50.860;6.208;2023-02-24T00:58:42;35.53;;;14.23;;
7525;SDS011;3804;50.860;6.208;2023-02-24T01:01:14;35.33;;;13.70;;
7525;SDS011;3804;50.860;6.208;2023-02-24T01:03:42;38.07;;;14.30;;
7525;SDS011;3804;50.860;6.208;2023-02-24T01:06:10;27.73;;;13.70;;
7525;SDS011;3804;50.860;6.208;2023-02-24T01:08:40;29.87;;;11.87;;
7525;SDS011;3804;50.860;6.208;2023-02-24T01:11:13;25.83;;;10.03;;
7525;SDS011;3804;50.860;6.208;2023-02-24T01:14:02;22.87;;;9.80;;
7525;SDS011;3804;50.860;6.208;2023-02-24T01:16:29;20.07;;;9.67;;
7525;SDS011;3804;50.860;6.208;2023-02-24T01:18:55;19.97;;;8.23;;
7525;SDS011;3804;50.860;6.208;2023-02-24T01:21:22;21.07;;;8.00;;
7525;SDS011;3804;50.860;6.208;2023-02-24T01:23:50;26.13;;;9.47;;
7525;SDS011;3804;50.860;6.208;2023-02-24T01:26:17;23.73;;;9.40;;
7525;SDS011;3804;50.860;6.208;2023-02-24T01:28:45;18.87;;;8.07;;
7525;SDS011;3804;50.860;6.208;2023-02-24T01:31:12;26.67;;;8.70;;
7525;SDS011;3804;50.860;6.208;2023-02-24T01:33:42;22.77;;;8.20;;
7525;SDS011;3804;50.860;6.208;2023-02-24T01:36:21;20.20;;;8.50;;
7525;SDS011;3804;50.860;6.208;2023-02-24T01:38:48;18.40;;;8.63;;
7525;SDS011;3804;50.860;6.208;2023-02-24T01:41:16;20.37;;;8.40;;
7525;SDS011;3804;50.860;6.208;2023-02-24T01:46:38;27.37;;;8.60;;
7525;SDS011;3804;50.860;6.208;2023-02-24T01:49:10;19.93;;;8.17;;
7525;SDS011;3804;50.860;6.208;2023-02-24T01:51:46;24.20;;;8.20;;
7525;SDS011;3804;50.860;6.208;2023-02-24T01:54:15;20.37;;;8.27;;
7525;SDS011;3804;50.860;6.208;2023-02-24T01:56:45;18.63;;;7.43;;
7525;SDS011;3804;50.860;6.208;2023-02-24T01:59:13;16.50;;;7.37;;
7525;SDS011;3804;50.860;6.208;2023-02-24T02:01:41;20.70;;;7.47;;
7525;SDS011;3804;50.860;6.208;2023-02-24T02:04:29;21.67;;;7.33;;
7525;SDS011;3804;50.860;6.208;2023-02-24T02:06:57;16.43;;;7.30;;
7525;SDS011;3804;50.860;6.208;2023-02-24T02:09:30;19.43;;;6.33;;
7525;SDS011;3804;50.860;6.208;2023-02-24T02:11:57;19.43;;;6.73;;
7525;SDS011;3804;50.860;6.208;2023-02-24T02:14:24;23.57;;;7.57;;
7525;SDS011;3804;50.860;6.208;2023-02-24T02:19:37;23.90;;;7.00;;
7525;SDS011;3804;50.860;6.208;2023-02-24T02:25:10;22.07;;;6.97;;
7525;SDS011;3804;50.860;6.208;2023-02-24T02:32:59;22.67;;;6.17;;
7525;SDS011;3804;50.860;6.208;2023-02-24T02:35:35;19.47;;;5.90;;
7525;SDS011;3804;50.860;6.208;2023-02-24T02:38:09;19.33;;;5.33;;
7525;SDS011;3804;50.860;6.208;2023-02-24T02:40:47;21.13;;;5.00;;
7525;SDS011;3804;50.860;6.208;2023-02-24T02:43:29;20.90;;;5.17;;
7525;SDS011;3804;50.860;6.208;2023-02-24T02:45:58;19.40;;;4.67;;
7525;SDS011;3804;50.860;6.208;2023-02-24T02:48:30;18.33;;;3.97;;
7525;SDS011;3804;50.860;6.208;2023-02-24T02:51:03;15.13;;;4.27;;
7525;SDS011;3804;50.860;6.208;2023-02-24T02:53:35;19.93;;;4.63;;
7525;SDS011;3804;50.860;6.208;2023-02-24T02:58:34;19.87;;;4.90;;
7525;SDS011;3804;50.860;6.208;2023-02-24T03:01:02;25.50;;;4.57;;
7525;SDS011;3804;50.860;6.208;2023-02-24T03:03:40;13.93;;;3.53;;
7525;SDS011;3804;50.860;6.208;2023-02-24T03:06:10;25.83;;;4.73;;
7525;SDS011;3804;50.860;6.208;2023-02-24T03:08:40;19.33;;;4.60;;
7525;SDS011;3804;50.860;6.208;2023-02-24T03:11:10;16.93;;;4.43;;
7525;SDS011;3804;50.860;6.208;2023-02-24T03:13:38;18.93;;;4.87;;
7525;SDS011;3804;50.860;6.208;2023-02-24T03:16:08;19.63;;;4.43;;
7525;SDS011;3804;50.860;6.208;2023-02-24T03:18:38;21.87;;;5.27;;
7525;SDS011;3804;50.860;6.208;2023-02-24T03:21:07;22.30;;;4.50;;
7525;SDS011;3804;50.860;6.208;2023-02-24T03:23:36;23.57;;;4.60;;
7525;SDS011;3804;50.860;6.208;2023-02-24T03:26:17;18.43;;;5.60;;
7525;SDS011;3804;50.860;6.208;2023-02-24T03:28:54;21.53;;;6.00;;
7525;SDS011;3804;50.860;6.208;2023-02-24T03:31:34;20.77;;;7.20;;
7525;SDS011;3804;50.860;6.208;2023-02-24T03:36:40;19.70;;;8.03;;
7525;SDS011;3804;50.860;6.208;2023-02-24T03:39:08;25.97;;;9.37;;
7525;SDS011;3804;50.860;6.208;2023-02-24T03:42:06;25.47;;;10.90;;
7525;SDS011;3804;50.860;6.208;2023-02-24T03:44:34;26.47;;;10.77;;
7525;SDS011;3804;50.860;6.208;2023-02-24T03:47:01;29.00;;;11.00;;
7525;SDS011;3804;50.860;6.208;2023-02-24T03:49:28;25.80;;;10.37;;
7525;SDS011;3804;50.860;6.208;2023-02-24T04:03:18;23.93;;;8.33;;
7525;SDS011;3804;50.860;6.208;2023-02-24T04:05:43;28.37;;;7.60;;
7525;SDS011;3804;50.860;6.208;2023-02-24T04:08:13;23.10;;;7.90;;
7525;SDS011;3804;50.860;6.208;2023-02-24T04:13:41;26.43;;;7.47;;
7525;SDS011;3804;50.860;6.208;2023-02-24T04:16:19;18.40;;;7.60;;
7525;SDS011;3804;50.860;6.208;2023-02-24T04:18:57;27.90;;;6.87;;
7525;SDS011;3804;50.860;6.208;2023-02-24T04:21:30;29.00;;;7.90;;
7525;SDS011;3804;50.860;6.208;2023-02-24T04:23:59;18.97;;;6.53;;
7525;SDS011;3804;50.860;6.208;2023-02-24T04:26:32;20.00;;;7.20;;
7525;SDS011;3804;50.860;6.208;2023-02-24T04:29:01;20.63;;;6.90;;
7525;SDS011;3804;50.860;6.208;2023-02-24T04:31:29;19.23;;;6.37;;
7525;SDS011;3804;50.860;6.208;2023-02-24T04:33:56;23.40;;;6.63;;
7525;SDS011;3804;50.860;6.208;2023-02-24T04:36:33;18.57;;;5.77;;
7525;SDS011;3804;50.860;6.208;2023-02-24T04:39:00;22.87;;;5.30;;
7525;SDS011;3804;50.860;6.208;2023-02-24T04:41:26;22.00;;;6.13;;
7525;SDS011;3804;50.860;6.208;2023-02-24T04:43:53;22.90;;;6.13;;
7525;SDS011;3804;50.860;6.208;2023-02-24T04:46:20;15.47;;;5.47;;
7525;SDS011;3804;50.860;6.208;2023-02-24T04:48:48;16.60;;;5.50;;
7525;SDS011;3804;50.860;6.208;2023-02-24T04:51:16;18.47;;;7.00;;
7525;SDS011;3804;50.860;6.208;2023-02-24T04:53:47;18.87;;;6.77;;
7525;SDS011;3804;50.860;6.208;2023-02-24T04:56:14;16.63;;;5.93;;
7525;SDS011;3804;50.860;6.208;2023-02-24T04:58:41;26.13;;;6.03;;
7525;SDS011;3804;50.860;6.208;2023-02-24T05:01:09;16.90;;;5.23;;
7525;SDS011;3804;50.860;6.208;2023-02-24T05:03:36;18.70;;;5.73;;
7525;SDS011;3804;50.860;6.208;2023-02-24T05:06:04;22.40;;;6.00;;
7525;SDS011;3804;50.860;6.208;2023-02-24T05:08:31;16.87;;;5.33;;
7525;SDS011;3804;50.860;6.208;2023-02-24T05:10:58;16.23;;;5.30;;
7525;SDS011;3804;50.860;6.208;2023-02-24T05:13:32;17.33;;;5.67;;
7525;SDS011;3804;50.860;6.208;2023-02-24T05:16:02;24.30;;;5.27;;
7525;SDS011;3804;50.860;6.208;2023-02-24T05:18:30;22.13;;;5.70;;
7525;SDS011;3804;50.860;6.208;2023-02-24T05:21:04;15.40;;;5.17;;
7525;SDS011;3804;50.860;6.208;2023-02-24T05:23:50;20.33;;;5.03;;
7525;SDS011;3804;50.860;6.208;2023-02-24T05:26:18;19.17;;;4.80;;
7525;SDS011;3804;50.860;6.208;2023-02-24T05:28:46;24.80;;;6.83;;
7525;SDS011;3804;50.860;6.208;2023-02-24T05:31:22;23.17;;;5.40;;
7525;SDS011;3804;50.860;6.208;2023-02-24T05:33:51;22.17;;;4.90;;
7525;SDS011;3804;50.860;6.208;2023-02-24T05:36:20;20.97;;;5.63;;
7525;SDS011;3804;50.860;6.208;2023-02-24T05:38:47;23.30;;;5.40;;
7525;SDS011;3804;50.860;6.208;2023-02-24T05:41:16;25.67;;;5.57;;
7525;SDS011;3804;50.860;6.208;2023-02-24T05:43:44;25.97;;;5.80;;
7525;SDS011;3804;50.860;6.208;2023-02-24T05:46:24;24.60;;;5.93;;
7525;SDS011;3804;50.860;6.208;2023-02-24T05:48:54;15.07;;;4.97;;
7525;SDS011;3804;50.860;6.208;2023-02-24T05:51:25;32.80;;;5.20;;
7525;SDS011;3804;50.860;6.208;2023-02-24T05:53:52;20.40;;;5.13;;
7525;SDS011;3804;50.860;6.208;2023-02-24T05:56:22;21.07;;;4.80;;
7525;SDS011;3804;50.860;6.208;2023-02-24T05:58:49;14.67;;;4.80;;
7525;SDS011;3804;50.860;6.208;2023-02-24T06:01:31;23.43;;;5.40;;
7525;SDS011;3804;50.860;6.208;2023-02-24T06:03:59;23.93;;;4.97;;
7525;SDS011;3804;50.860;6.208;2023-02-24T06:06:33;23.10;;;5.50;;
7525;SDS011;3804;50.860;6.208;2023-02-24T06:09:03;15.00;;;5.53;;
7525;SDS011;3804;50.860;6.208;2023-02-24T06:11:36;16.80;;;4.77;;
7525;SDS011;3804;50.860;6.208;2023-02-24T06:14:04;21.23;;;4.73;;
7525;SDS011;3804;50.860;6.208;2023-02-24T06:16:34;24.20;;;5.23;;
7525;SDS011;3804;50.860;6.208;2023-02-24T06:19:01;23.17;;;5.70;;
7525;SDS011;3804;50.860;6.208;2023-02-24T06:21:28;23.20;;;5.23;;
7525;SDS011;3804;50.860;6.208;2023-02-24T06:23:55;15.87;;;5.03;;
7525;SDS011;3804;50.860;6.208;2023-02-24T06:26:26;19.73;;;4.70;;
7525;SDS011;3804;50.860;6.208;2023-02-24T06:28:55;18.67;;;5.27;;
7525;SDS011;3804;50.860;6.208;2023-02-24T06:31:22;14.47;;;4.23;;
7525;SDS011;3804;50.860;6.208;2023-02-24T06:33:49;22.40;;;5.17;;
7525;SDS011;3804;50.860;6.208;2023-02-24T06:36:19;18.80;;;4.67;;
7525;SDS011;3804;50.860;6.208;2023-02-24T06:38:46;17.50;;;5.20;;
7525;SDS011;3804;50.860;6.208;2023-02-24T06:41:12;22.20;;;5.70;;
7525;SDS011;3804;50.860;6.208;2023-02-24T06:43:40;17.30;;;5.17;;
7525;SDS011;3804;50.860;6.208;2023-02-24T06:46:12;21.90;;;6.07;;
7525;SDS011;3804;50.860;6.208;2023-02-24T06:48:41;22.77;;;4.97;;
7525;SDS011;3804;50.860;6.208;2023-02-24T06:51:09;20.70;;;5.40;;
7525;SDS011;3804;50.860;6.208;2023-02-24T06:53:36;17.73;;;5.10;;
7525;SDS011;3804;50.860;6.208;2023-02-24T06:56:12;18.03;;;4.80;;
7525;SDS011;3804;50.860;6.208;2023-02-24T06:58:49;20.23;;;5.23;;
7525;SDS011;3804;50.860;6.208;2023-02-24T07:01:17;30.97;;;5.00;;
7525;SDS011;3804;50.860;6.208;2023-02-24T07:03:45;15.23;;;5.23;;
7525;SDS011;3804;50.860;6.208;2023-02-24T07:06:27;22.77;;;5.73;;
7525;SDS011;3804;50.860;6.208;2023-02-24T07:08:56;86.27;;;43.17;;
7525;SDS011;3804;50.860;6.208;2023-02-24T07:11:23;16.77;;;5.93;;
7525;SDS011;3804;50.860;6.208;2023-02-24T07:13:50;19.37;;;6.50;;
7525;SDS011;3804;50.860;6.208;2023-02-24T07:16:20;23.83;;;6.27;;
7525;SDS011;3804;50.860;6.208;2023-02-24T07:18:54;19.27;;;6.17;;
7525;SDS011;3804;50.860;6.208;2023-02-24T07:21:22;21.37;;;6.70;;
7525;SDS011;3804;50.860;6.208;2023-02-24T07:23:50;23.43;;;6.27;;
7525;SDS011;3804;50.860;6.208;2023-02-24T07:26:25;17.57;;;5.70;;
7525;SDS011;3804;50.860;6.208;2023-02-24T07:28:53;20.43;;;5.67;;
7525;SDS011;3804;50.860;6.208;2023-02-24T07:31:24;18.67;;;4.90;;
7525;SDS011;3804;50.860;6.208;2023-02-24T07:33:52;20.60;;;5.03;;
7525;SDS011;3804;50.860;6.208;2023-02-24T07:36:19;20.23;;;6.33;;
7525;SDS011;3804;50.860;6.208;2023-02-24T07:38:52;16.73;;;5.83;;
7525;SDS011;3804;50.860;6.208;2023-02-24T07:41:20;17.47;;;5.37;;
7525;SDS011;3804;50.860;6.208;2023-02-24T07:43:49;18.80;;;5.40;;
7525;SDS011;3804;50.860;6.208;2023-02-24T07:46:21;20.20;;;5.07;;
7525;SDS011;3804;50.860;6.208;2023-02-24T07:48:52;21.40;;;4.70;;
7525;SDS011;3804;50.860;6.208;2023-02-24T07:51:20;16.97;;;4.97;;
7525;SDS011;3804;50.860;6.208;2023-02-24T07:53:52;18.70;;;5.33;;
7525;SDS011;3804;50.860;6.208;2023-02-24T07:56:19;24.30;;;5.60;;
7525;SDS011;3804;50.860;6.208;2023-02-24T07:58:47;19.80;;;4.73;;
7525;SDS011;3804;50.860;6.208;2023-02-24T08:01:17;17.57;;;4.33;;
7525;SDS011;3804;50.860;6.208;2023-02-24T08:03:49;19.00;;;5.27;;
7525;SDS011;3804;50.860;6.208;2023-02-24T08:06:17;16.17;;;4.87;;
7525;SDS011;3804;50.860;6.208;2023-02-24T08:08:53;18.00;;;5.60;;
7525;SDS011;3804;50.860;6.208;2023-02-24T08:11:28;19.83;;;5.63;;
7525;SDS011;3804;50.860;6.208;2023-02-24T08:14:04;15.43;;;5.63;;
7525;SDS011;3804;50.860;6.208;2023-02-24T08:16:36;15.77;;;4.90;;
7525;SDS011;3804;50.860;6.208;2023-02-24T08:19:08;14.00;;;4.20;;
7525;SDS011;3804;50.860;6.208;2023-02-24T08:21:42;17.07;;;4.20;;
7525;SDS011;3804;50.860;6.208;2023-02-24T08:24:13;14.10;;;4.33;;
7525;SDS011;3804;50.860;6.208;2023-02-24T08:26:47;14.73;;;3.67;;
7525;SDS011;3804;50.860;6.208;2023-02-24T08:29:33;15.93;;;4.17;;
7525;SDS011;3804;50.860;6.208;2023-02-24T08:32:20;14.77;;;3.73;;
7525;SDS011;3804;50.860;6.208;2023-02-24T08:34:50;11.70;;;2.80;;
7525;SDS011;3804;50.860;6.208;2023-02-24T08:37:22;11.63;;;3.07;;
7525;SDS011;3804;50.860;6.208;2023-02-24T08:39:50;10.47;;;2.97;;
7525;SDS011;3804;50.860;6.208;2023-02-24T08:42:19;12.83;;;3.50;;
7525;SDS011;3804;50.860;6.208;2023-02-24T08:44:46;11.80;;;2.93;;
7525;SDS011;3804;50.860;6.208;2023-02-24T08:47:15;12.80;;;2.77;;
7525;SDS011;3804;50.860;6.208;2023-02-24T08:49:46;7.67;;;3.00;;
7525;SDS011;3804;50.860;6.208;2023-02-24T08:52:15;18.87;;;3.43;;
7525;SDS011;3804;50.860;6.208;2023-02-24T08:54:41;13.53;;;3.30;;
7525;SDS011;3804;50.860;6.208;2023-02-24T08:57:14;14.63;;;3.33;;
7525;SDS011;3804;50.860;6.208;2023-02-24T08:59:43;14.40;;;3.30;;
7525;SDS011;3804;50.860;6.208;2023-02-24T09:02:17;17.17;;;3.70;;
7525;SDS011;3804;50.860;6.208;2023-02-24T09:04:45;14.13;;;2.80;;
7525;SDS011;3804;50.860;6.208;2023-02-24T09:07:16;14.27;;;3.70;;
7525;SDS011;3804;50.860;6.208;2023-02-24T09:09:43;9.60;;;2.80;;
7525;SDS011;3804;50.860;6.208;2023-02-24T09:12:10;11.40;;;3.27;;
7525;SDS011;3804;50.860;6.208;2023-02-24T09:14:48;8.63;;;2.80;;
7525;SDS011;3804;50.860;6.208;2023-02-24T09:17:15;11.53;;;3.03;;
7525;SDS011;3804;50.860;6.208;2023-02-24T09:19:46;11.87;;;3.40;;
7525;SDS011;3804;50.860;6.208;2023-02-24T09:22:14;12.63;;;3.30;;
7525;SDS011;3804;50.860;6.208;2023-02-24T09:24:55;13.87;;;3.77;;
7525;SDS011;3804;50.860;6.208;2023-02-24T09:27:41;11.33;;;3.70;;
7525;SDS011;3804;50.860;6.208;2023-02-24T09:30:11;15.83;;;3.60;;
7525;SDS011;3804;50.860;6.208;2023-02-24T09:32:57;10.30;;;3.80;;
7525;SDS011;3804;50.860;6.208;2023-02-24T09:35:28;7.57;;;3.13;;
7525;SDS011;3804;50.860;6.208;2023-02-24T09:38:03;9.40;;;4.00;;
7525;SDS011;3804;50.860;6.208;2023-02-24T09:40:34;11.33;;;4.23;;
7525;SDS011;3804;50.860;6.208;2023-02-24T09:43:09;11.93;;;4.90;;
7525;SDS011;3804;50.860;6.208;2023-02-24T09:45:54;7.80;;;3.80;;
7525;SDS011;3804;50.860;6.208;2023-02-24T09:48:35;11.37;;;4.10;;
7525;SDS011;3804;50.860;6.208;2023-02-24T09:51:13;12.43;;;3.90;;
7525;SDS011;3804;50.860;6.208;2023-02-24T09:53:49;14.73;;;4.03;;
7525;SDS011;3804;50.860;6.208;2023-02-24T09:56:31;11.07;;;4.73;;
7525;SDS011;3804;50.860;6.208;2023-02-24T09:59:13;10.60;;;4.00;;
7525;SDS011;3804;50.860;6.208;2023-02-24T10:02:29;11.90;;;5.13;;
7525;SDS011;3804;50.860;6.208;2023-02-24T10:04:44;11.17;;;3.27;;
7525;SDS011;3804;50.860;6.208;2023-02-24T10:07:16;9.33;;;3.33;;
7525;SDS011;3804;50.860;6.208;2023-02-24T10:09:54;9.67;;;3.50;;
7525;SDS011;3804;50.860;6.208;2023-02-24T10:12:30;8.23;;;3.57;;
7525;SDS011;3804;50.860;6.208;2023-02-24T10:15:01;8.93;;;3.23;;
7525;SDS011;3804;50.860;6.208;2023-02-24T10:17:59;10.60;;;3.50;;
7525;SDS011;3804;50.860;6.208;2023-02-24T10:20:34;8.33;;;3.70;;
7525;SDS011;3804;50.860;6.208;2023-02-24T10:23:14;8.20;;;3.50;;
7525;SDS011;3804;50.860;6.208;2023-02-24T10:33:42;10.77;;;3.53;;
7525;SDS011;3804;50.860;6.208;2023-02-24T10:36:12;11.97;;;3.40;;
7525;SDS011;3804;50.860;6.208;2023-02-24T10:38:43;9.60;;;3.43;;
7525;SDS011;3804;50.860;6.208;2023-02-24T10:41:16;13.70;;;3.23;;
7525;SDS011;3804;50.860;6.208;2023-02-24T10:43:53;9.83;;;3.53;;
7525;SDS011;3804;50.860;6.208;2023-02-24T10:46:28;11.60;;;4.00;;
7525;SDS011;3804;50.860;6.208;2023-02-24T10:49:08;11.17;;;3.90;;
7525;SDS011;3804;50.860;6.208;2023-02-24T10:51:37;8.70;;;3.77;;
7525;SDS011;3804;50.860;6.208;2023-02-24T10:54:10;8.53;;;4.07;;
7525;SDS011;3804;50.860;6.208;2023-02-24T10:56:55;10.30;;;3.83;;
7525;SDS011;3804;50.860;6.208;2023-02-24T10:59:45;8.13;;;3.93;;
7525;SDS011;3804;50.860;6.208;2023-02-24T11:02:34;10.23;;;4.83;;
7525;SDS011;3804;50.860;6.208;2023-02-24T11:05:24;12.03;;;4.37;;
7525;SDS011;3804;50.860;6.208;2023-02-24T11:08:21;9.00;;;3.93;;
7525;SDS011;3804;50.860;6.208;2023-02-24T11:11:09;12.77;;;4.00;;
7525;SDS011;3804;50.860;6.208;2023-02-24T11:13:49;10.90;;;4.40;;
7525;SDS011;3804;50.860;6.208;2023-02-24T11:16:47;7.83;;;4.10;;
7525;SDS011;3804;50.860;6.208;2023-02-24T11:19:36;10.97;;;4.27;;
7525;SDS011;3804;50.860;6.208;2023-02-24T11:22:04;13.40;;;4.17;;
7525;SDS011;3804;50.860;6.208;2023-02-24T11:24:34;13.17;;;4.30;;
7525;SDS011;3804;50.860;6.208;2023-02-24T11:27:02;11.93;;;4.27;;
7525;SDS011;3804;50.860;6.208;2023-02-24T11:34:52;13.47;;;4.63;;
7525;SDS011;3804;50.860;6.208;2023-02-24T11:42:36;10.97;;;5.27;;
7525;SDS011;3804;50.860;6.208;2023-02-24T11:47:53;14.63;;;4.40;;
7525;SDS011;3804;50.860;6.208;2023-02-24T11:52:59;12.20;;;4.90;;
7525;SDS011;3804;50.860;6.208;2023-02-24T11:55:35;9.93;;;5.60;;
7525;SDS011;3804;50.860;6.208;2023-02-24T11:58:13;11.33;;;4.40;;
7525;SDS011;3804;50.860;6.208;2023-02-24T12:00:46;14.93;;;5.60;;
7525;SDS011;3804;50.860;6.208;2023-02-24T12:05:49;13.47;;;5.67;;
7525;SDS011;3804;50.860;6.208;2023-02-24T12:08:53;12.73;;;4.40;;
7525;SDS011;3804;50.860;6.208;2023-02-24T12:11:15;9.20;;;3.80;;
7525;SDS011;3804;50.860;6.208;2023-02-24T12:13:51;12.57;;;4.77;;
7525;SDS011;3804;50.860;6.208;2023-02-24T12:16:27;13.60;;;5.23;;
7525;SDS011;3804;50.860;6.208;2023-02-24T12:21:26;12.83;;;5.00;;
7525;SDS011;3804;50.860;6.208;2023-02-24T12:23:57;10.50;;;4.20;;
7525;SDS011;3804;50.860;6.208;2023-02-24T12:26:25;15.07;;;4.87;;
7525;SDS011;3804;50.860;6.208;2023-02-24T12:31:55;14.90;;;4.30;;
7525;SDS011;3804;50.860;6.208;2023-02-24T12:40:02;13.30;;;4.20;;
7525;SDS011;3804;50.860;6.208;2023-02-24T12:42:37;12.93;;;3.77;;
7525;SDS011;3804;50.860;6.208;2023-02-24T12:50:34;20.27;;;5.03;;
7525;SDS011;3804;50.860;6.208;2023-02-24T12:53:04;14.67;;;4.97;;
7525;SDS011;3804;50.860;6.208;2023-02-24T12:55:39;9.97;;;4.23;;
7525;SDS011;3804;50.860;6.208;2023-02-24T13:06:00;13.50;;;4.27;;
7525;SDS011;3804;50.860;6.208;2023-02-24T13:13:59;12.57;;;3.73;;
7525;SDS011;3804;50.860;6.208;2023-02-24T13:16:29;15.70;;;4.30;;
7525;SDS011;3804;50.860;6.208;2023-02-24T13:19:03;9.00;;;3.73;;
7525;SDS011;3804;50.860;6.208;2023-02-24T13:21:30;12.70;;;4.27;;
7525;SDS011;3804;50.860;6.208;2023-02-24T13:23:58;14.60;;;3.60;;
7525;SDS011;3804;50.860;6.208;2023-02-24T13:26:27;10.20;;;3.87;;
7525;SDS011;3804;50.860;6.208;2023-02-24T13:29:01;13.17;;;4.03;;
7525;SDS011;3804;50.860;6.208;2023-02-24T13:31:39;12.43;;;4.27;;
7525;SDS011;3804;50.860;6.208;2023-02-24T13:34:12;17.17;;;4.43;;
7525;SDS011;3804;50.860;6.208;2023-02-24T13:36:46;9.83;;;4.40;;
7525;SDS011;3804;50.860;6.208;2023-02-24T13:39:21;15.93;;;4.47;;
7525;SDS011;3804;50.860;6.208;2023-02-24T13:41:48;12.67;;;3.80;;
7525;SDS011;3804;50.860;6.208;2023-02-24T14:03:07;10.47;;;3.30;;
7525;SDS011;3804;50.860;6.208;2023-02-24T14:05:35;9.70;;;3.93;;
7525;SDS011;3804;50.860;6.208;2023-02-24T14:08:02;6.67;;;3.60;;
7525;SDS011;3804;50.860;6.208;2023-02-24T14:10:31;7.83;;;3.30;;
7525;SDS011;3804;50.860;6.208;2023-02-24T14:15:27;9.30;;;3.40;;
7525;SDS011;3804;50.860;6.208;2023-02-24T14:17:55;14.70;;;3.80;;
7525;SDS011;3804;50.860;6.208;2023-02-24T14:20:22;12.03;;;3.87;;
7525;SDS011;3804;50.860;6.208;2023-02-24T14:25:16;13.40;;;3.90;;
7525;SDS011;3804;50.860;6.208;2023-02-24T14:27:44;8.53;;;3.33;;
7525;SDS011;3804;50.860;6.208;2023-02-24T14:30:22;8.33;;;3.70;;
7525;SDS011;3804;50.860;6.208;2023-02-24T14:32:51;10.47;;;3.63;;
7525;SDS011;3804;50.860;6.208;2023-02-24T14:35:19;8.47;;;3.20;;
7525;SDS011;3804;50.860;6.208;2023-02-24T14:37:49;14.20;;;4.10;;
7525;SDS011;3804;50.860;6.208;2023-02-24T14:40:16;20.57;;;4.60;;
7525;SDS011;3804;50.860;6.208;2023-02-24T14:42:45;10.23;;;3.83;;
7525;SDS011;3804;50.860;6.208;2023-02-24T14:45:17;8.87;;;3.67;;
7525;SDS011;3804;50.860;6.208;2023-02-24T14:47:44;12.43;;;4.10;;
7525;SDS011;3804;50.860;6.208;2023-02-24T14:50:15;12.13;;;4.07;;
7525;SDS011;3804;50.860;6.208;2023-02-24T14:55:45;18.27;;;7.33;;
7525;SDS011;3804;50.860;6.208;2023-02-24T15:00:50;15.10;;;5.37;;
7525;SDS011;3804;50.860;6.208;2023-02-24T15:05:47;12.97;;;5.17;;
7525;SDS011;3804;50.860;6.208;2023-02-24T15:08:18;8.90;;;3.60;;
7525;SDS011;3804;50.860;6.208;2023-02-24T15:10:47;14.87;;;4.77;;
7525;SDS011;3804;50.860;6.208;2023-02-24T15:13:16;11.80;;;4.10;;
7525;SDS011;3804;50.860;6.208;2023-02-24T15:15:44;14.70;;;4.37;;
7525;SDS011;3804;50.860;6.208;2023-02-24T15:18:18;9.33;;;4.30;;
7525;SDS011;3804;50.860;6.208;2023-02-24T15:20:45;11.20;;;4.87;;
7525;SDS011;3804;50.860;6.208;2023-02-24T15:23:25;17.87;;;6.23;;
7525;SDS011;3804;50.860;6.208;2023-02-24T15:25:53;11.60;;;4.30;;
7525;SDS011;3804;50.860;6.208;2023-02-24T15:28:21;9.63;;;4.40;;
7525;SDS011;3804;50.860;6.208;2023-02-24T15:31:00;8.27;;;4.20;;
7525;SDS011;3804;50.860;6.208;2023-02-24T15:33:34;7.10;;;4.17;;
7525;SDS011;3804;50.860;6.208;2023-02-24T15:36:04;10.97;;;4.37;;
7525;SDS011;3804;50.860;6.208;2023-02-24T15:38:33;9.33;;;4.90;;
7525;SDS011;3804;50.860;6.208;2023-02-24T15:41:01;9.97;;;4.80;;
7525;SDS011;3804;50.860;6.208;2023-02-24T15:45:58;12.80;;;5.50;;
7525;SDS011;3804;50.860;6.208;2023-02-24T15:48:25;10.97;;;5.60;;
7525;SDS011;3804;50.860;6.208;2023-02-24T15:50:56;9.87;;;5.47;;
7525;SDS011;3804;50.860;6.208;2023-02-24T15:53:24;10.60;;;5.30;;
7525;SDS011;3804;50.860;6.208;2023-02-24T15:55:51;12.03;;;5.90;;
7525;SDS011;3804;50.860;6.208;2023-02-24T15:58:19;10.10;;;5.33;;
7525;SDS011;3804;50.860;6.208;2023-02-24T16:00:47;16.17;;;5.03;;
7525;SDS011;3804;50.860;6.208;2023-02-24T16:03:17;12.10;;;6.17;;
7525;SDS011;3804;50.860;6.208;2023-02-24T16:05:44;13.97;;;6.67;;
7525;SDS011;3804;50.860;6.208;2023-02-24T16:08:15;10.87;;;5.60;;
7525;SDS011;3804;50.860;6.208;2023-02-24T16:10:42;12.37;;;5.53;;
7525;SDS011;3804;50.860;6.208;2023-02-24T16:16:21;16.27;;;6.20;;
7525;SDS011;3804;50.860;6.208;2023-02-24T16:18:50;11.97;;;6.20;;
7525;SDS011;3804;50.860;6.208;2023-02-24T16:21:16;10.80;;;6.00;;
7525;SDS011;3804;50.860;6.208;2023-02-24T16:23:43;13.67;;;6.83;;
7525;SDS011;3804;50.860;6.208;2023-02-24T16:26:17;17.90;;;7.20;;
7525;SDS011;3804;50.860;6.208;2023-02-24T16:28:54;16.23;;;7.30;;
7525;SDS011;3804;50.860;6.208;2023-02-24T16:31:22;11.60;;;6.97;;
7525;SDS011;3804;50.860;6.208;2023-02-24T16:33:50;12.73;;;7.03;;
7525;SDS011;3804;50.860;6.208;2023-02-24T16:36:22;14.77;;;6.60;;
7525;SDS011;3804;50.860;6.208;2023-02-24T16:38:49;14.07;;;8.00;;
7525;SDS011;3804;50.860;6.208;2023-02-24T16:41:17;16.00;;;7.73;;
7525;SDS011;3804;50.860;6.208;2023-02-24T16:43:43;19.00;;;7.60;;
7525;SDS011;3804;50.860;6.208;2023-02-24T16:46:15;21.30;;;9.00;;
7525;SDS011;3804;50.860;6.208;2023-02-24T16:48:43;18.80;;;8.23;;
7525;SDS011;3804;50.860;6.208;2023-02-24T16:51:11;14.30;;;9.07;;
7525;SDS011;3804;50.860;6.208;2023-02-24T16:53:41;15.47;;;9.30;;
7525;SDS011;3804;50.860;6.208;2023-02-24T16:56:08;15.23;;;9.70;;
7525;SDS011;3804;50.860;6.208;2023-02-24T16:58:35;17.53;;;9.53;;
7525;SDS011;3804;50.860;6.208;2023-02-24T17:01:03;16.47;;;9.87;;
7525;SDS011;3804;50.860;6.208;2023-02-24T17:03:32;15.10;;;9.90;;
7525;SDS011;3804;50.860;6.208;2023-02-24T17:06:02;19.27;;;11.23;;
7525;SDS011;3804;50.860;6.208;2023-02-24T17:08:29;16.43;;;10.23;;
7525;SDS011;3804;50.860;6.208;2023-02-24T17:10:56;19.37;;;10.67;;
7525;SDS011;3804;50.860;6.208;2023-02-24T17:13:23;18.57;;;10.30;;
7525;SDS011;3804;50.860;6.208;2023-02-24T17:15:50;16.70;;;9.47;;
7525;SDS011;3804;50.860;6.208;2023-02-24T17:18:22;19.73;;;11.37;;
7525;SDS011;3804;50.860;6.208;2023-02-24T17:20:49;16.67;;;10.93;;
7525;SDS011;3804;50.860;6.208;2023-02-24T17:23:16;17.13;;;11.67;;
7525;SDS011;3804;50.860;6.208;2023-02-24T17:25:43;22.53;;;11.93;;
7525;SDS011;3804;50.860;6.208;2023-02-24T17:28:10;17.83;;;11.90;;
7525;SDS011;3804;50.860;6.208;2023-02-24T17:30:37;22.47;;;12.40;;
7525;SDS011;3804;50.860;6.208;2023-02-24T17:33:04;19.00;;;12.40;;